sensor_id;sensor_type;location;lat;lon;timestamp;pressure;altitude;pressure_sealevel;temperature;humidity
66681;BME280;73718;51.366;12.350;2024-03-22T00:01:45;100926.78;;;6.25;100.00
66681;BME280;73718;51.366;12.350;2024-03-22T00:04:12;100924.94;;;6.19;100.00
66681;BME280;73718;51.366;12.350;2024-03-22T00:06:39;100929.13;;;6.14;100.00
66681;BME280;73718;51.366;12.350;2024-03-22T00:09:05;100919.50;;;6.08;100.00
66681;BME280;73718;51.366;12.350;2024-03-22T00:11:30;100919.44;;;6.05;100.00
66681;BME280;73718;51.366;12.350;2024-03-22T00:13:55;100919.41;;;6.04;100.00
66681;BME280;73718;51.366;12.350;2024-03-22T00:16:21;100914.94;;;5.98;100.00
66681;BME280;73718;51.366;12.350;2024-03-22T00:18:46;100915.72;;;5.94;100.00
66681;BME280;73718;51.366;12.350;2024-03-22T00:21:12;100904.28;;;5.87;100.00
66681;BME280;73718;51.366;12.350;2024-03-22T00:23:37;100911.34;;;5.92;100.00
66681;BME280;73718;51.366;12.350;2024-03-22T00:26:02;100898.25;;;5.87;100.00
66681;BME280;73718;51.366;12.350;2024-03-22T00:28:28;100904.19;;;5.81;100.00
66681;BME280;73718;51.366;12.350;2024-03-22T00:30:53;100903.31;;;5.81;100.00
66681;BME280;73718;51.366;12.350;2024-03-22T00:33:19;100892.94;;;5.82;100.00
66681;BME280;73718;51.366;12.350;2024-03-22T00:35:44;100897.28;;;5.83;100.00
66681;BME280;73718;51.366;12.350;2024-03-22T00:38:09;100895.63;;;5.85;100.00
66681;BME280;73718;51.366;12.350;2024-03-22T00:40:35;100887.84;;;5.87;100.00
66681;BME280;73718;51.366;12.350;2024-03-22T00:43:00;100889.63;;;5.88;100.00
66681;BME280;73718;51.366;12.350;2024-03-22T00:45:25;100883.00;;;5.99;100.00
66681;BME280;73718;51.366;12.350;2024-03-22T00:47:51;100885.69;;;6.04;100.00
66681;BME280;73718;51.366;12.350;2024-03-22T00:50:16;100884.06;;;6.09;100.00
66681;BME280;73718;51.366;12.350;2024-03-22T00:52:42;100882.38;;;6.11;100.00
66681;BME280;73718;51.366;12.350;2024-03-22T00:55:07;100879.78;;;6.11;100.00
66681;BME280;73718;51.366;12.350;2024-03-22T00:57:33;100876.41;;;6.15;100.00
66681;BME280;73718;51.366;12.350;2024-03-22T00:59:58;100881.59;;;6.15;100.00
66681;BME280;73718;51.366;12.350;2024-03-22T01:02:23;100871.25;;;6.17;100.00
66681;BME280;73718;51.366;12.350;2024-03-22T01:04:49;100867.69;;;6.13;100.00
66681;BME280;73718;51.366;12.350;2024-03-22T01:07:14;100858.25;;;6.15;100.00
66681;BME280;73718;51.366;12.350;2024-03-22T01:09:40;100854.72;;;6.12;100.00
66681;BME280;73718;51.366;12.350;2024-03-22T01:12:05;100858.19;;;6.12;100.00
66681;BME280;73718;51.366;12.350;2024-03-22T01:14:31;100846.94;;;6.13;100.00
66681;BME280;73718;51.366;12.350;2024-03-22T01:16:56;100849.53;;;6.12;100.00
66681;BME280;73718;51.366;12.350;2024-03-22T01:19:22;100841.69;;;6.10;100.00
66681;BME280;73718;51.366;12.350;2024-03-22T01:21:48;100838.22;;;6.09;100.00
66681;BME280;73718;51.366;12.350;2024-03-22T01:24:14;100833.88;;;6.07;100.00
66681;BME280;73718;51.366;12.350;2024-03-22T01:26:39;100829.56;;;6.09;100.00
66681;BME280;73718;51.366;12.350;2024-03-22T01:29:05;100833.88;;;6.07;100.00
66681;BME280;73718;51.366;12.350;2024-03-22T01:31:30;100828.69;;;6.07;100.00
66681;BME280;73718;51.366;12.350;2024-03-22T01:33:55;100829.56;;;6.09;100.00
66681;BME280;73718;51.366;12.350;2024-03-22T01:36:21;100825.31;;;6.11;100.00
66681;BME280;73718;51.366;12.350;2024-03-22T01:38:46;100832.22;;;6.12;100.00
66681;BME280;73718;51.366;12.350;2024-03-22T01:41:11;100816.72;;;6.15;100.00
66681;BME280;73718;51.366;12.350;2024-03-22T01:43:37;100814.94;;;6.13;100.00
66681;BME280;73718;51.366;12.350;2024-03-22T01:46:02;100812.50;;;6.20;100.00
66681;BME280;73718;51.366;12.350;2024-03-22T01:48:28;100809.03;;;6.20;100.00
66681;BME280;73718;51.366;12.350;2024-03-22T01:50:53;100803.84;;;6.20;100.00
66681;BME280;73718;51.366;12.350;2024-03-22T01:53:19;100797.78;;;6.19;100.00
66681;BME280;73718;51.366;12.350;2024-03-22T01:55:44;100793.47;;;6.20;100.00
66681;BME280;73718;51.366;12.350;2024-03-22T01:58:11;100794.41;;;6.23;100.00
66681;BME280;73718;51.366;12.350;2024-03-22T02:00:37;100793.53;;;6.24;100.00
66681;BME280;73718;51.366;12.350;2024-03-22T02:03:03;100791.81;;;6.25;100.00
66681;BME280;73718;51.366;12.350;2024-03-22T02:05:28;100781.41;;;6.23;100.00
66681;BME280;73718;51.366;12.350;2024-03-22T02:07:54;100773.63;;;6.23;100.00
66681;BME280;73718;51.366;12.350;2024-03-22T02:10:19;100777.97;;;6.24;100.00
66681;BME280;73718;51.366;12.350;2024-03-22T02:12:45;100780.56;;;6.24;100.00
66681;BME280;73718;51.366;12.350;2024-03-22T02:15:11;100771.91;;;6.24;100.00
66681;BME280;73718;51.366;12.350;2024-03-22T02:17:36;100777.09;;;6.24;100.00
66681;BME280;73718;51.366;12.350;2024-03-22T02:20:02;100766.69;;;6.22;100.00
66681;BME280;73718;51.366;12.350;2024-03-22T02:22:29;100759.78;;;6.23;100.00
66681;BME280;73718;51.366;12.350;2024-03-22T02:24:55;100752.94;;;6.26;100.00
66681;BME280;73718;51.366;12.350;2024-03-22T02:27:20;100744.41;;;6.33;100.00
66681;BME280;73718;51.366;12.350;2024-03-22T02:29:46;100744.50;;;6.38;100.00
66681;BME280;73718;51.366;12.350;2024-03-22T02:32:11;100739.38;;;6.43;100.00
66681;BME280;73718;51.366;12.350;2024-03-22T02:34:37;100730.78;;;6.47;100.00
66681;BME280;73718;51.366;12.350;2024-03-22T02:37:02;100733.44;;;6.50;100.00
66681;BME280;73718;51.366;12.350;2024-03-22T02:39:28;100737.03;;;6.56;100.00
66681;BME280;73718;51.366;12.350;2024-03-22T02:41:54;100736.31;;;6.65;100.00
66681;BME280;73718;51.366;12.350;2024-03-22T02:44:19;100739.72;;;6.63;100.00
66681;BME280;73718;51.366;12.350;2024-03-22T02:46:45;100734.47;;;6.59;100.00
66681;BME280;73718;51.366;12.350;2024-03-22T02:49:10;100729.31;;;6.61;100.00
66681;BME280;73718;51.366;12.350;2024-03-22T02:51:35;100731.97;;;6.64;100.00
66681;BME280;73718;51.366;12.350;2024-03-22T02:54:01;100719.81;;;6.63;100.00
66681;BME280;73718;51.366;12.350;2024-03-22T02:56:27;100720.66;;;6.62;100.00
66681;BME280;73718;51.366;12.350;2024-03-22T02:58:53;100720.66;;;6.61;100.00
66681;BME280;73718;51.366;12.350;2024-03-22T03:01:18;100727.59;;;6.62;100.00
66681;BME280;73718;51.366;12.350;2024-03-22T03:03:44;100719.84;;;6.65;100.00
66681;BME280;73718;51.366;12.350;2024-03-22T03:06:09;100725.06;;;6.68;100.00
66681;BME280;73718;51.366;12.350;2024-03-22T03:08:35;100722.47;;;6.68;100.00
66681;BME280;73718;51.366;12.350;2024-03-22T03:11:00;100719.00;;;6.66;100.00
66681;BME280;73718;51.366;12.350;2024-03-22T03:13:26;100721.59;;;6.67;100.00
66681;BME280;73718;51.366;12.350;2024-03-22T03:15:51;100718.19;;;6.68;100.00
66681;BME280;73718;51.366;12.350;2024-03-22T03:18:17;100708.63;;;6.67;100.00
66681;BME280;73718;51.366;12.350;2024-03-22T03:20:43;100706.88;;;6.66;100.00
66681;BME280;73718;51.366;12.350;2024-03-22T03:23:08;100692.91;;;6.59;100.00
66681;BME280;73718;51.366;12.350;2024-03-22T03:25:33;100698.22;;;6.66;100.00
66681;BME280;73718;51.366;12.350;2024-03-22T03:27:59;100693.94;;;6.69;100.00
66681;BME280;73718;51.366;12.350;2024-03-22T03:30:24;100691.34;;;6.69;100.00
66681;BME280;73718;51.366;12.350;2024-03-22T03:32:50;100691.31;;;6.68;100.00
66681;BME280;73718;51.366;12.350;2024-03-22T03:35:15;100688.72;;;6.68;100.00
66681;BME280;73718;51.366;12.350;2024-03-22T03:37:40;100692.22;;;6.70;100.00
66681;BME280;73718;51.366;12.350;2024-03-22T03:40:06;100698.34;;;6.73;100.00
66681;BME280;73718;51.366;12.350;2024-03-22T03:42:32;100689.69;;;6.73;100.00
66681;BME280;73718;51.366;12.350;2024-03-22T03:44:57;100681.94;;;6.77;100.00
66681;BME280;73718;51.366;12.350;2024-03-22T03:47:23;100677.63;;;6.76;100.00
66681;BME280;73718;51.366;12.350;2024-03-22T03:49:48;100666.34;;;6.77;100.00
66681;BME280;73718;51.366;12.350;2024-03-22T03:52:14;100675.00;;;6.76;100.00
66681;BME280;73718;51.366;12.350;2024-03-22T03:54:39;100675.03;;;6.78;100.00
66681;BME280;73718;51.366;12.350;2024-03-22T03:57:05;100669.00;;;6.80;100.00
66681;BME280;73718;51.366;12.350;2024-03-22T03:59:30;100671.59;;;6.80;100.00
66681;BME280;73718;51.366;12.350;2024-03-22T04:01:56;100659.47;;;6.79;100.00
66681;BME280;73718;51.366;12.350;2024-03-22T04:04:21;100654.22;;;6.76;100.00
66681;BME280;73718;51.366;12.350;2024-03-22T04:06:47;100651.69;;;6.79;100.00
66681;BME280;73718;51.366;12.350;2024-03-22T04:09:12;100643.09;;;6.83;100.00
66681;BME280;73718;51.366;12.350;2024-03-22T04:11:37;100638.72;;;6.81;100.00
66681;BME280;73718;51.366;12.350;2024-03-22T04:14:04;100633.53;;;6.82;100.00
66681;BME280;73718;51.366;12.350;2024-03-22T04:16:31;100637.84;;;6.82;100.00
66681;BME280;73718;51.366;12.350;2024-03-22T04:18:56;100625.66;;;6.76;100.00
66681;BME280;73718;51.366;12.350;2024-03-22T04:21:21;100630.81;;;6.73;100.00
66681;BME280;73718;51.366;12.350;2024-03-22T04:23:47;100631.75;;;6.78;100.00
66681;BME280;73718;51.366;12.350;2024-03-22T04:26:12;100634.34;;;6.78;100.00
66681;BME280;73718;51.366;12.350;2024-03-22T04:28:38;100632.66;;;6.82;100.00
66681;BME280;73718;51.366;12.350;2024-03-22T04:31:08;100629.25;;;6.84;100.00
66681;BME280;73718;51.366;12.350;2024-03-22T04:33:37;100626.59;;;6.81;100.00
66681;BME280;73718;51.366;12.350;2024-03-22T04:36:03;100617.94;;;6.82;100.00
66681;BME280;73718;51.366;12.350;2024-03-22T04:38:29;100608.44;;;6.83;100.00
66681;BME280;73718;51.366;12.350;2024-03-22T04:40:55;100601.47;;;6.80;100.00
66681;BME280;73718;51.366;12.350;2024-03-22T04:43:22;100589.34;;;6.81;100.00
66681;BME280;73718;51.366;12.350;2024-03-22T04:45:48;100592.78;;;6.77;100.00
66681;BME280;73718;51.366;12.350;2024-03-22T04:48:16;100590.94;;;6.70;100.00
66681;BME280;73718;51.366;12.350;2024-03-22T04:50:42;100591.84;;;6.75;100.00
66681;BME280;73718;51.366;12.350;2024-03-22T04:53:07;100588.44;;;6.76;100.00
66681;BME280;73718;51.366;12.350;2024-03-22T04:55:33;100580.59;;;6.73;100.00
66681;BME280;73718;51.366;12.350;2024-03-22T04:57:58;100582.38;;;6.75;100.00
66681;BME280;73718;51.366;12.350;2024-03-22T05:00:24;100575.41;;;6.74;100.00
66681;BME280;73718;51.366;12.350;2024-03-22T05:02:51;100584.97;;;6.75;100.00
66681;BME280;73718;51.366;12.350;2024-03-22T05:05:17;100589.31;;;6.76;100.00
66681;BME280;73718;51.366;12.350;2024-03-22T05:07:42;100592.78;;;6.78;100.00
66681;BME280;73718;51.366;12.350;2024-03-22T05:10:08;100589.41;;;6.84;100.00
66681;BME280;73718;51.366;12.350;2024-03-22T05:12:34;100586.84;;;6.87;100.00
66681;BME280;73718;51.366;12.350;2024-03-22T05:15:00;100578.19;;;6.88;100.00
66681;BME280;73718;51.366;12.350;2024-03-22T05:17:25;100582.56;;;6.91;100.00
66681;BME280;73718;51.366;12.350;2024-03-22T05:19:51;100574.75;;;6.89;100.00
66681;BME280;73718;51.366;12.350;2024-03-22T05:22:17;100575.59;;;6.88;100.00
66681;BME280;73718;51.366;12.350;2024-03-22T05:24:45;100580.00;;;6.94;100.00
66681;BME280;73718;51.366;12.350;2024-03-22T05:27:10;100567.91;;;6.96;100.00
66681;BME280;73718;51.366;12.350;2024-03-22T05:29:36;100574.84;;;6.97;100.00
66681;BME280;73718;51.366;12.350;2024-03-22T05:32:01;100573.16;;;7.00;100.00
66681;BME280;73718;51.366;12.350;2024-03-22T05:34:29;100574.03;;;7.01;100.00
66681;BME280;73718;51.366;12.350;2024-03-22T05:36:54;100561.91;;;7.01;100.00
66681;BME280;73718;51.366;12.350;2024-03-22T05:39:20;100569.75;;;7.04;100.00
66681;BME280;73718;51.366;12.350;2024-03-22T05:41:45;100574.16;;;7.10;100.00
66681;BME280;73718;51.366;12.350;2024-03-22T05:44:11;100568.97;;;7.13;100.00
66681;BME280;73718;51.366;12.350;2024-03-22T05:46:36;100564.72;;;7.20;100.00
66681;BME280;73718;51.366;12.350;2024-03-22T05:49:02;100561.31;;;7.22;100.00
66681;BME280;73718;51.366;12.350;2024-03-22T05:51:28;100563.03;;;7.25;100.00
66681;BME280;73718;51.366;12.350;2024-03-22T05:53:55;100557.88;;;7.26;100.00
66681;BME280;73718;51.366;12.350;2024-03-22T05:56:21;100558.81;;;7.35;100.00
66681;BME280;73718;51.366;12.350;2024-03-22T05:58:46;100553.66;;;7.39;100.00
66681;BME280;73718;51.366;12.350;2024-03-22T06:01:12;100545.91;;;7.44;100.00
66681;BME280;73718;51.366;12.350;2024-03-22T06:03:37;100545.09;;;7.46;100.00
66681;BME280;73718;51.366;12.350;2024-03-22T06:06:03;100555.56;;;7.54;100.00
66681;BME280;73718;51.366;12.350;2024-03-22T06:08:29;100549.53;;;7.56;100.00
66681;BME280;73718;51.366;12.350;2024-03-22T06:10:57;100544.41;;;7.64;100.00
66681;BME280;73718;51.366;12.350;2024-03-22T06:13:22;100546.16;;;7.68;100.00
66681;BME280;73718;51.366;12.350;2024-03-22T06:15:48;100548.81;;;7.74;100.00
66681;BME280;73718;51.366;12.350;2024-03-22T06:18:14;100547.19;;;7.84;100.00
66681;BME280;73718;51.366;12.350;2024-03-22T06:20:40;100541.19;;;7.94;100.00
66681;BME280;73718;51.366;12.350;2024-03-22T06:23:05;100545.63;;;8.07;100.00
66681;BME280;73718;51.366;12.350;2024-03-22T06:25:31;100545.72;;;8.20;100.00
66681;BME280;73718;51.366;12.350;2024-03-22T06:27:56;100543.22;;;8.34;100.00
66681;BME280;73718;51.366;12.350;2024-03-22T06:30:21;100541.56;;;8.42;100.00
66681;BME280;73718;51.366;12.350;2024-03-22T06:32:47;100538.97;;;8.45;100.00
66681;BME280;73718;51.366;12.350;2024-03-22T06:35:12;100532.09;;;8.53;100.00
66681;BME280;73718;51.366;12.350;2024-03-22T06:37:39;100526.03;;;8.62;100.00
66681;BME280;73718;51.366;12.350;2024-03-22T06:40:06;100517.38;;;8.66;100.00
66681;BME280;73718;51.366;12.350;2024-03-22T06:42:32;100513.94;;;8.71;100.00
66681;BME280;73718;51.366;12.350;2024-03-22T06:44:57;100518.34;;;8.82;100.00
66681;BME280;73718;51.366;12.350;2024-03-22T06:47:22;100518.38;;;8.95;100.00
66681;BME280;73718;51.366;12.350;2024-03-22T06:49:48;100515.81;;;9.01;100.00
66681;BME280;73718;51.366;12.350;2024-03-22T06:52:14;100508.00;;;9.06;100.00
66681;BME280;73718;51.366;12.350;2024-03-22T06:54:40;100495.84;;;9.10;100.00
66681;BME280;73718;51.366;12.350;2024-03-22T06:57:06;100492.38;;;9.15;100.00
66681;BME280;73718;51.366;12.350;2024-03-22T06:59:31;100496.75;;;9.21;100.00
66681;BME280;73718;51.366;12.350;2024-03-22T07:01:57;100488.03;;;9.22;100.00
66681;BME280;73718;51.366;12.350;2024-03-22T07:04:22;100480.25;;;9.23;100.00
66681;BME280;73718;51.366;12.350;2024-03-22T07:06:47;100482.84;;;9.26;100.00
66681;BME280;73718;51.366;12.350;2024-03-22T07:09:13;100482.84;;;9.28;100.00
66681;BME280;73718;51.366;12.350;2024-03-22T07:11:39;100482.88;;;9.39;100.00
66681;BME280;73718;51.366;12.350;2024-03-22T07:14:04;100481.13;;;9.39;100.00
66681;BME280;73718;51.366;12.350;2024-03-22T07:16:30;100481.16;;;9.47;100.00
66681;BME280;73718;51.366;12.350;2024-03-22T07:18:55;100478.50;;;9.50;100.00
66681;BME280;73718;51.366;12.350;2024-03-22T07:21:20;100462.88;;;9.50;100.00
66681;BME280;73718;51.366;12.350;2024-03-22T07:23:46;100467.22;;;9.49;100.00
66681;BME280;73718;51.366;12.350;2024-03-22T07:26:11;100476.81;;;9.55;100.00
66681;BME280;73718;51.366;12.350;2024-03-22T07:28:37;100471.56;;;9.60;100.00
66681;BME280;73718;51.366;12.350;2024-03-22T07:31:02;100478.53;;;9.71;100.00
66681;BME280;73718;51.366;12.350;2024-03-22T07:33:28;100482.88;;;9.80;100.00
66681;BME280;73718;51.366;12.350;2024-03-22T07:35:53;100498.53;;;9.91;100.00
66681;BME280;73718;51.366;12.350;2024-03-22T07:38:20;100487.22;;;9.90;100.00
66681;BME280;73718;51.366;12.350;2024-03-22T07:40:45;100498.53;;;10.05;100.00
66681;BME280;73718;51.366;12.350;2024-03-22T07:43:11;100489.84;;;10.09;100.00
66681;BME280;73718;51.366;12.350;2024-03-22T07:45:38;100487.22;;;10.16;100.00
66681;BME280;73718;51.366;12.350;2024-03-22T07:48:04;100486.31;;;10.30;100.00
66681;BME280;73718;51.366;12.350;2024-03-22T07:50:30;100473.25;;;10.42;100.00
66681;BME280;73718;51.366;12.350;2024-03-22T07:52:55;100476.66;;;10.56;100.00
66681;BME280;73718;51.366;12.350;2024-03-22T07:55:21;100482.72;;;10.67;99.18
66681;BME280;73718;51.366;12.350;2024-03-22T07:57:47;100480.06;;;10.83;97.93
66681;BME280;73718;51.366;12.350;2024-03-22T08:00:12;100470.47;;;10.82;97.14
66681;BME280;73718;51.366;12.350;2024-03-22T08:02:38;100466.16;;;10.78;96.93
66681;BME280;73718;51.366;12.350;2024-03-22T08:05:03;100468.78;;;10.73;97.37
66681;BME280;73718;51.366;12.350;2024-03-22T08:07:30;100474.00;;;10.74;97.45
66681;BME280;73718;51.366;12.350;2024-03-22T08:09:55;100481.81;;;10.81;96.87
66681;BME280;73718;51.366;12.350;2024-03-22T08:12:21;100477.41;;;10.87;96.72
66681;BME280;73718;51.366;12.350;2024-03-22T08:14:47;100468.72;;;10.91;96.79
66681;BME280;73718;51.366;12.350;2024-03-22T08:17:12;100461.72;;;10.90;96.48
66681;BME280;73718;51.366;12.350;2024-03-22T08:19:38;100462.56;;;10.94;97.15
66681;BME280;73718;51.366;12.350;2024-03-22T08:22:03;100459.13;;;10.92;96.74
66681;BME280;73718;51.366;12.350;2024-03-22T08:24:29;100459.97;;;10.94;96.68
66681;BME280;73718;51.366;12.350;2024-03-22T08:26:54;100453.84;;;10.95;97.03
66681;BME280;73718;51.366;12.350;2024-03-22T08:29:21;100453.00;;;10.93;97.24
66681;BME280;73718;51.366;12.350;2024-03-22T08:31:46;100451.19;;;11.03;97.43
66681;BME280;73718;51.366;12.350;2024-03-22T08:34:12;100445.91;;;11.13;96.47
66681;BME280;73718;51.366;12.350;2024-03-22T08:36:37;100445.78;;;11.29;95.82
66681;BME280;73718;51.366;12.350;2024-03-22T08:39:03;100442.16;;;11.48;95.23
66681;BME280;73718;51.366;12.350;2024-03-22T08:41:28;100449.81;;;11.76;93.78
66681;BME280;73718;51.366;12.350;2024-03-22T08:43:54;100451.47;;;11.86;93.03
66681;BME280;73718;51.366;12.350;2024-03-22T08:46:19;100436.53;;;11.99;92.34
66681;BME280;73718;51.366;12.350;2024-03-22T08:48:46;100446.16;;;11.98;91.79
66681;BME280;73718;51.366;12.350;2024-03-22T08:51:12;100439.00;;;12.09;92.14
66681;BME280;73718;51.366;12.350;2024-03-22T08:53:37;100442.50;;;12.11;91.15
66681;BME280;73718;51.366;12.350;2024-03-22T08:56:03;100418.84;;;12.19;90.87
66681;BME280;73718;51.366;12.350;2024-03-22T08:58:28;100405.81;;;12.14;90.53
66681;BME280;73718;51.366;12.350;2024-03-22T09:00:54;100404.00;;;12.19;90.37
66681;BME280;73718;51.366;12.350;2024-03-22T09:03:20;100397.03;;;12.17;90.50
66681;BME280;73718;51.366;12.350;2024-03-22T09:05:46;100398.75;;;12.19;90.87
66681;BME280;73718;51.366;12.350;2024-03-22T09:08:11;100396.94;;;12.25;90.19
66681;BME280;73718;51.366;12.350;2024-03-22T09:10:37;100394.19;;;12.37;90.08
66681;BME280;73718;51.366;12.350;2024-03-22T09:13:02;100396.63;;;12.51;87.88
66681;BME280;73718;51.366;12.350;2024-03-22T09:15:28;100392.25;;;12.53;88.22
66681;BME280;73718;51.366;12.350;2024-03-22T09:17:54;100388.59;;;12.64;87.42
66681;BME280;73718;51.366;12.350;2024-03-22T09:20:19;100379.81;;;12.65;86.80
66681;BME280;73718;51.366;12.350;2024-03-22T09:22:45;100391.00;;;12.80;86.62
66681;BME280;73718;51.366;12.350;2024-03-22T09:25:10;100382.16;;;12.85;85.91
66681;BME280;73718;51.366;12.350;2024-03-22T09:27:35;100382.19;;;12.84;85.92
66681;BME280;73718;51.366;12.350;2024-03-22T09:30:01;100381.13;;;12.99;85.71
66681;BME280;73718;51.366;12.350;2024-03-22T09:32:29;100366.75;;;13.24;85.26
66681;BME280;73718;51.366;12.350;2024-03-22T09:34:54;100372.44;;;13.49;84.07
66681;BME280;73718;51.366;12.350;2024-03-22T09:37:20;100367.09;;;13.55;83.19
66681;BME280;73718;51.366;12.350;2024-03-22T09:39:45;100365.41;;;13.53;83.68
66681;BME280;73718;51.366;12.350;2024-03-22T09:42:16;100361.59;;;13.69;82.74
66681;BME280;73718;51.366;12.350;2024-03-22T09:44:47;100354.66;;;13.65;82.19
66681;BME280;73718;51.366;12.350;2024-03-22T09:47:19;100343.34;;;13.63;83.12
66681;BME280;73718;51.366;12.350;2024-03-22T09:49:46;100350.94;;;13.77;82.48
66681;BME280;73718;51.366;12.350;2024-03-22T09:52:14;100343.97;;;13.76;82.10
66681;BME280;73718;51.366;12.350;2024-03-22T09:54:43;100352.97;;;13.62;82.27
66681;BME280;73718;51.366;12.350;2024-03-22T09:57:14;100344.25;;;13.60;82.94
66681;BME280;73718;51.366;12.350;2024-03-22T09:59:46;100348.69;;;13.58;82.56
66681;BME280;73718;51.366;12.350;2024-03-22T10:02:12;100340.75;;;13.60;82.82
66681;BME280;73718;51.366;12.350;2024-03-22T10:04:39;100336.19;;;13.71;82.68
66681;BME280;73718;51.366;12.350;2024-03-22T10:07:04;100335.84;;;13.88;82.34
66681;BME280;73718;51.366;12.350;2024-03-22T10:09:30;100323.31;;;14.02;81.58
66681;BME280;73718;51.366;12.350;2024-03-22T10:11:56;100310.88;;;14.10;81.25
66681;BME280;73718;51.366;12.350;2024-03-22T10:14:22;100321.28;;;14.17;80.83
66681;BME280;73718;51.366;12.350;2024-03-22T10:16:51;100315.22;;;14.13;81.26
66681;BME280;73718;51.366;12.350;2024-03-22T10:19:19;100305.53;;;14.15;81.21
66681;BME280;73718;51.366;12.350;2024-03-22T10:21:44;100303.59;;;14.25;81.58
66681;BME280;73718;51.366;12.350;2024-03-22T10:24:09;100308.50;;;14.40;80.01
66681;BME280;73718;51.366;12.350;2024-03-22T10:26:35;100301.59;;;14.34;79.77
66681;BME280;73718;51.366;12.350;2024-03-22T10:29:05;100312.16;;;14.33;80.42
66681;BME280;73718;51.366;12.350;2024-03-22T10:31:31;100296.56;;;14.25;80.49
66681;BME280;73718;51.366;12.350;2024-03-22T10:33:58;100301.06;;;14.20;80.81
66681;BME280;73718;51.366;12.350;2024-03-22T10:36:25;100300.91;;;14.28;80.95
66681;BME280;73718;51.366;12.350;2024-03-22T10:38:52;100284.25;;;14.27;80.63
66681;BME280;73718;51.366;12.350;2024-03-22T10:41:19;100288.47;;;14.34;80.51
66681;BME280;73718;51.366;12.350;2024-03-22T10:43:45;100289.03;;;14.49;80.33
66681;BME280;73718;51.366;12.350;2024-03-22T10:46:10;100287.06;;;14.60;79.52
66681;BME280;73718;51.366;12.350;2024-03-22T10:48:37;100287.50;;;14.79;79.01
66681;BME280;73718;51.366;12.350;2024-03-22T10:51:04;100284.22;;;15.05;74.06
66681;BME280;73718;51.366;12.350;2024-03-22T10:53:32;100278.31;;;15.29;72.10
66681;BME280;73718;51.366;12.350;2024-03-22T10:56:00;100271.88;;;15.41;71.84
66681;BME280;73718;51.366;12.350;2024-03-22T10:58:26;100276.94;;;15.49;70.45
66681;BME280;73718;51.366;12.350;2024-03-22T11:00:53;100274.41;;;15.46;70.46
66681;BME280;73718;51.366;12.350;2024-03-22T11:03:22;100275.41;;;15.40;71.08
66681;BME280;73718;51.366;12.350;2024-03-22T11:05:54;100267.44;;;15.43;70.99
66681;BME280;73718;51.366;12.350;2024-03-22T11:08:28;100252.91;;;15.61;70.84
66681;BME280;73718;51.366;12.350;2024-03-22T11:10:56;100247.19;;;15.78;70.55
66681;BME280;73718;51.366;12.350;2024-03-22T11:13:22;100246.16;;;15.83;70.09
66681;BME280;73718;51.366;12.350;2024-03-22T11:15:50;100248.03;;;15.80;69.98
66681;BME280;73718;51.366;12.350;2024-03-22T11:18:16;100241.13;;;15.76;70.76
66681;BME280;73718;51.366;12.350;2024-03-22T11:20:43;100242.69;;;15.81;70.01
66681;BME280;73718;51.366;12.350;2024-03-22T11:23:10;100232.88;;;15.87;70.33
66681;BME280;73718;51.366;12.350;2024-03-22T11:25:35;100212.25;;;16.01;70.16
66681;BME280;73718;51.366;12.350;2024-03-22T11:28:01;100223.94;;;15.92;70.07
66681;BME280;73718;51.366;12.350;2024-03-22T11:30:32;100218.97;;;15.81;70.58
66681;BME280;73718;51.366;12.350;2024-03-22T11:32:57;100213.56;;;15.86;71.45
66681;BME280;73718;51.366;12.350;2024-03-22T11:35:25;100211.53;;;15.96;70.47
66681;BME280;73718;51.366;12.350;2024-03-22T11:37:51;100203.63;;;15.96;70.58
66681;BME280;73718;51.366;12.350;2024-03-22T11:40:16;100202.34;;;16.09;69.69
66681;BME280;73718;51.366;12.350;2024-03-22T11:42:45;100199.22;;;15.96;70.04
66681;BME280;73718;51.366;12.350;2024-03-22T11:45:13;100193.81;;;16.01;70.29
66681;BME280;73718;51.366;12.350;2024-03-22T11:47:40;100184.13;;;16.01;70.01
66681;BME280;73718;51.366;12.350;2024-03-22T11:50:06;100178.47;;;16.14;69.54
66681;BME280;73718;51.366;12.350;2024-03-22T11:52:31;100172.53;;;16.35;68.71
66681;BME280;73718;51.366;12.350;2024-03-22T11:54:57;100188.53;;;16.29;67.96
66681;BME280;73718;51.366;12.350;2024-03-22T11:57:23;100188.69;;;16.24;68.62
66681;BME280;73718;51.366;12.350;2024-03-22T11:59:48;100183.91;;;16.37;68.45
66681;BME280;73718;51.366;12.350;2024-03-22T12:02:14;100178.38;;;16.45;67.52
66681;BME280;73718;51.366;12.350;2024-03-22T12:04:46;100179.00;;;16.25;68.70
66681;BME280;73718;51.366;12.350;2024-03-22T12:07:16;100168.59;;;16.20;68.80
66681;BME280;73718;51.366;12.350;2024-03-22T12:09:43;100168.34;;;16.28;69.25
66681;BME280;73718;51.366;12.350;2024-03-22T12:12:11;100155.19;;;16.28;69.29
66681;BME280;73718;51.366;12.350;2024-03-22T12:14:40;100155.03;;;16.32;69.29
66681;BME280;73718;51.366;12.350;2024-03-22T12:17:07;100148.69;;;16.38;69.20
66681;BME280;73718;51.366;12.350;2024-03-22T12:19:33;100150.25;;;16.44;69.02
66681;BME280;73718;51.366;12.350;2024-03-22T12:21:59;100149.38;;;16.45;68.93
66681;BME280;73718;51.366;12.350;2024-03-22T12:24:25;100134.59;;;16.39;68.36
66681;BME280;73718;51.366;12.350;2024-03-22T12:26:50;100137.81;;;16.49;68.25
66681;BME280;73718;51.366;12.350;2024-03-22T12:29:16;100128.00;;;16.52;68.49
66681;BME280;73718;51.366;12.350;2024-03-22T12:31:42;100129.41;;;16.63;68.28
66681;BME280;73718;51.366;12.350;2024-03-22T12:34:08;100118.91;;;16.61;68.56